createdAt,value
2022-09-26T00:00:17.950Z,22.10
2022-09-26T00:05:20.536Z,22.10
2022-09-26T00:10:23.119Z,22.10
2022-09-26T00:15:27.078Z,22.10
2022-09-26T00:20:30.604Z,22.10
2022-09-26T00:25:33.207Z,22.10
2022-09-26T00:30:38.909Z,22.10
2022-09-26T00:35:41.994Z,22.10
2022-09-26T00:40:44.799Z,22.10
2022-09-26T00:45:49.385Z,22.10
2022-09-26T00:50:52.657Z,22.10
2022-09-26T00:55:58.498Z,22.00
2022-09-26T01:01:03.257Z,22.10
2022-09-26T01:06:06.219Z,22.10
2022-09-26T01:11:11.588Z,22.00
2022-09-26T01:16:18.971Z,22.00
2022-09-26T01:21:37.466Z,22.00
2022-09-26T01:26:54.541Z,22.10
2022-09-26T01:32:21.930Z,22.00
2022-09-26T01:37:30.467Z,22.00
2022-09-26T01:42:36.764Z,22.00
2022-09-26T01:47:42.114Z,22.00
2022-09-26T01:52:46.837Z,22.00
2022-09-26T01:57:53.047Z,22.00
2022-09-26T02:02:57.674Z,22.10
2022-09-26T02:08:01.765Z,22.00
2022-09-26T02:13:08.143Z,22.00
2022-09-26T02:18:15.806Z,22.00
2022-09-26T02:23:18.443Z,22.00
2022-09-26T02:28:21.922Z,22.00
2022-09-26T02:33:25.919Z,22.00
2022-09-26T02:38:30.001Z,22.00
2022-09-26T02:43:44.683Z,22.00
2022-09-26T02:48:54.443Z,22.00
2022-09-26T02:54:06.499Z,22.00
2022-09-26T02:59:11.200Z,22.00
2022-09-26T03:04:19.043Z,22.00
2022-09-26T03:09:23.534Z,22.00
2022-09-26T03:14:26.915Z,22.00
2022-09-26T03:19:32.814Z,22.00
2022-09-26T03:24:36.582Z,22.00
2022-09-26T03:29:39.839Z,21.90
2022-09-26T03:34:43.784Z,21.90
2022-09-26T03:39:46.383Z,22.00
2022-09-26T03:44:48.976Z,22.00
2022-09-26T03:49:53.013Z,21.90
2022-09-26T03:54:55.603Z,22.00
2022-09-26T03:59:58.285Z,22.00
2022-09-26T04:05:02.230Z,21.90
2022-09-26T04:10:05.078Z,21.90
2022-09-26T04:15:08.530Z,21.90
2022-09-26T04:20:12.500Z,21.90
2022-09-26T04:25:15.085Z,21.90
2022-09-26T04:30:17.703Z,21.90
2022-09-26T04:35:21.648Z,21.90
2022-09-26T04:40:24.297Z,21.90
2022-09-26T04:45:26.974Z,21.90
2022-09-26T04:50:30.913Z,21.90
2022-09-26T04:55:33.991Z,21.90
2022-09-26T05:00:36.637Z,21.90
2022-09-26T05:05:41.247Z,21.90
2022-09-26T05:10:44.020Z,21.80
2022-09-26T05:15:48.665Z,21.90
2022-09-26T05:20:52.673Z,21.90
2022-09-26T05:26:13.409Z,21.90
2022-09-26T05:31:16.220Z,21.90
2022-09-26T05:36:20.397Z,21.80
2022-09-26T05:41:23.217Z,21.80
2022-09-26T05:46:27.033Z,21.80
2022-09-26T05:51:31.078Z,21.70
2022-09-26T05:56:37.231Z,21.90
2022-09-26T06:01:39.860Z,21.80
2022-09-26T06:06:44.318Z,21.80
2022-09-26T06:11:47.089Z,21.80
2022-09-26T06:16:49.701Z,21.90
2022-09-26T06:21:53.930Z,21.80
2022-09-26T06:26:56.511Z,21.90
2022-09-26T06:31:59.184Z,21.80
2022-09-26T06:37:03.184Z,21.90
2022-09-26T06:42:07.241Z,22.10
2022-09-26T06:47:10.729Z,22.10
2022-09-26T06:52:14.969Z,22.00
2022-09-26T06:57:17.739Z,22.20
2022-09-26T07:02:20.460Z,22.10
2022-09-26T07:07:24.469Z,22.10
2022-09-26T07:12:28.322Z,22.20
2022-09-26T07:17:31.152Z,22.20
2022-09-26T07:22:35.124Z,22.30
2022-09-26T07:27:38.022Z,22.40
2022-09-26T07:32:44.158Z,22.40
2022-09-26T07:37:52.006Z,22.50
2022-09-26T07:43:18.136Z,22.60
2022-09-26T07:48:34.877Z,22.60
2022-09-26T07:53:41.104Z,22.60
2022-09-26T07:58:44.506Z,22.80
2022-09-26T08:03:48.464Z,22.70
2022-09-26T08:08:54.429Z,22.70
2022-09-26T08:13:57.049Z,22.70
2022-09-26T08:19:01.600Z,22.80
2022-09-26T08:24:05.756Z,22.70
2022-09-26T08:29:12.421Z,22.70
2022-09-26T08:34:15.128Z,22.80
2022-09-26T08:39:19.242Z,22.80
2022-09-26T08:44:31.342Z,22.90
2022-09-26T08:49:41.658Z,23.00
2022-09-26T08:54:47.223Z,23.00
2022-09-26T08:59:50.026Z,23.00
2022-09-26T09:04:57.471Z,23.00
2022-09-26T09:10:02.745Z,23.10
2022-09-26T09:15:25.310Z,23.10
2022-09-26T09:20:36.135Z,23.30
2022-09-26T09:25:43.454Z,23.30
2022-09-26T09:30:47.695Z,23.30
2022-09-26T09:35:52.178Z,23.30
2022-09-26T09:41:00.721Z,23.30
2022-09-26T09:46:05.175Z,23.40
2022-09-26T09:51:14.033Z,23.40
2022-09-26T09:56:25.193Z,23.40
2022-09-26T10:01:29.445Z,23.40
2022-09-26T10:06:46.433Z,23.40
2022-09-26T10:11:52.673Z,23.40
2022-09-26T10:17:15.084Z,23.40
2022-09-26T10:22:25.892Z,23.40
2022-09-26T10:27:37.599Z,23.40
2022-09-26T10:32:45.676Z,23.50
2022-09-26T10:37:51.021Z,23.50
2022-09-26T10:43:06.611Z,23.50
2022-09-26T10:48:09.357Z,23.50
2022-09-26T10:53:15.476Z,23.50
2022-09-26T10:58:22.669Z,23.60
2022-09-26T11:03:26.844Z,23.60
2022-09-26T11:08:30.209Z,23.60
2022-09-26T11:13:46.586Z,23.50
2022-09-26T11:18:52.258Z,23.60
2022-09-26T11:23:57.239Z,23.60
2022-09-26T11:29:06.126Z,23.50
2022-09-26T11:34:13.575Z,23.60
2022-09-26T11:39:26.879Z,23.50
2022-09-26T11:44:42.445Z,23.60
2022-09-26T11:49:56.033Z,23.60
2022-09-26T11:55:06.857Z,23.70
2022-09-26T12:00:15.699Z,23.70
2022-09-26T12:05:28.272Z,23.70
2022-09-26T12:10:34.506Z,23.80
2022-09-26T12:15:41.130Z,23.80
2022-09-26T12:20:48.267Z,23.90
2022-09-26T12:25:57.750Z,24.00
2022-09-26T12:31:09.594Z,24.00
2022-09-26T12:36:22.256Z,24.00
2022-09-26T12:41:33.175Z,24.10
2022-09-26T12:46:57.639Z,24.10
2022-09-26T12:52:05.390Z,24.10
2022-09-26T12:57:11.602Z,24.10
2022-09-26T13:02:28.590Z,24.20
2022-09-26T13:07:42.009Z,24.30
2022-09-26T13:12:53.449Z,24.20
2022-09-26T13:18:00.927Z,24.20
2022-09-26T13:23:09.696Z,24.20
2022-09-26T13:28:15.315Z,24.20
2022-09-26T13:33:21.147Z,24.20
2022-09-26T13:38:32.405Z,24.20
2022-09-26T13:43:47.499Z,24.20
2022-09-26T13:48:58.838Z,24.10
2022-09-26T13:54:04.956Z,24.10
2022-09-26T13:59:26.184Z,24.10
2022-09-26T14:04:35.179Z,24.00
2022-09-26T14:09:42.062Z,24.10
2022-09-26T14:14:49.020Z,24.10
2022-09-26T14:19:54.989Z,24.20
2022-09-26T14:24:57.622Z,24.10
2022-09-26T14:30:01.579Z,24.10
2022-09-26T14:35:16.542Z,24.10
2022-09-26T14:40:23.475Z,24.10
2022-09-26T14:45:27.705Z,24.10
2022-09-26T14:50:35.407Z,24.00
2022-09-26T14:55:51.303Z,24.00
2022-09-26T15:00:55.512Z,24.00
2022-09-26T15:06:00.803Z,24.00
2022-09-26T15:11:03.546Z,24.00
2022-09-26T15:16:14.934Z,24.00
2022-09-26T15:21:26.298Z,24.00
2022-09-26T15:26:30.110Z,23.90
2022-09-26T15:31:38.797Z,24.00
2022-09-26T15:36:43.867Z,23.90
2022-09-26T15:42:03.806Z,23.90
2022-09-26T15:47:18.330Z,23.80
2022-09-26T15:52:22.434Z,23.80
2022-09-26T15:57:25.282Z,23.80
2022-09-26T16:02:30.863Z,23.80
2022-09-26T16:07:37.686Z,23.70
2022-09-26T16:12:41.773Z,23.70
2022-09-26T16:17:50.717Z,23.80
2022-09-26T16:23:00.450Z,23.80
2022-09-26T16:28:21.753Z,23.80
2022-09-26T16:33:31.733Z,23.80
2022-09-26T16:38:36.474Z,23.80
2022-09-26T16:43:39.710Z,23.70
2022-09-26T16:48:43.611Z,23.70
2022-09-26T16:53:48.758Z,23.60
2022-09-26T16:58:52.991Z,23.50
2022-09-26T17:03:56.125Z,23.50
2022-09-26T17:09:02.307Z,23.40
2022-09-26T17:14:05.253Z,23.40
2022-09-26T17:19:10.541Z,23.40
2022-09-26T17:24:16.522Z,23.30
2022-09-26T17:29:21.274Z,23.30
2022-09-26T17:34:25.406Z,23.30
2022-09-26T17:39:30.866Z,23.20
2022-09-26T17:44:37.369Z,23.20
2022-09-26T17:49:40.502Z,23.10
2022-09-26T17:54:45.185Z,23.20
2022-09-26T17:59:48.550Z,23.10
2022-09-26T18:04:53.206Z,23.10
2022-09-26T18:09:57.218Z,23.00
2022-09-26T18:15:02.404Z,23.00
2022-09-26T18:20:05.377Z,23.00
2022-09-26T18:25:18.859Z,23.00
2022-09-26T18:30:22.279Z,22.90
2022-09-26T18:35:25.891Z,22.90
2022-09-26T18:40:32.521Z,22.90
2022-09-26T18:45:36.413Z,22.90
2022-09-26T18:50:39.701Z,22.90
2022-09-26T18:56:01.412Z,22.70
2022-09-26T19:01:06.868Z,22.80
2022-09-26T19:06:11.743Z,22.80
2022-09-26T19:11:17.324Z,22.70
2022-09-26T19:16:20.507Z,22.80
2022-09-26T19:21:27.036Z,22.70
2022-09-26T19:26:32.572Z,22.70
2022-09-26T19:31:35.333Z,22.70
2022-09-26T19:36:38.069Z,22.70
2022-09-26T19:41:42.168Z,22.60
2022-09-26T19:46:46.325Z,22.70
2022-09-26T19:51:49.881Z,22.60
2022-09-26T19:56:53.918Z,22.60
2022-09-26T20:01:57.051Z,22.60
2022-09-26T20:06:59.771Z,22.60
2022-09-26T20:12:03.957Z,22.60
2022-09-26T20:17:12.878Z,22.60
2022-09-26T20:22:16.379Z,22.60
2022-09-26T20:27:21.655Z,22.70
2022-09-26T20:32:24.352Z,22.50
2022-09-26T20:37:27.632Z,22.50
2022-09-26T20:42:35.020Z,22.50
2022-09-26T20:47:37.698Z,22.50
2022-09-26T20:52:42.442Z,22.40
2022-09-26T20:57:47.841Z,22.60
2022-09-26T21:02:52.208Z,22.50
2022-09-26T21:07:55.613Z,22.50
2022-09-26T21:12:59.870Z,22.50
2022-09-26T21:18:02.936Z,22.50
2022-09-26T21:23:05.634Z,22.40
2022-09-26T21:28:22.554Z,22.40
2022-09-26T21:33:25.491Z,22.40
2022-09-26T21:38:28.187Z,22.40
2022-09-26T21:43:33.358Z,22.40
2022-09-26T21:48:36.055Z,22.40
2022-09-26T21:53:41.821Z,22.40
2022-09-26T21:58:46.794Z,22.30
2022-09-26T22:03:49.459Z,22.40
2022-09-26T22:08:52.147Z,22.30
2022-09-26T22:13:56.315Z,22.30
2022-09-26T22:18:59.046Z,22.30
2022-09-26T22:24:01.977Z,22.30
2022-09-26T22:29:05.988Z,22.40
2022-09-26T22:34:08.651Z,22.30
2022-09-26T22:39:11.374Z,22.30
2022-09-26T22:44:15.629Z,22.30
2022-09-26T22:49:18.322Z,22.20
2022-09-26T22:54:20.992Z,22.20
2022-09-26T22:59:25.008Z,22.30
2022-09-26T23:04:46.655Z,22.20
2022-09-26T23:09:49.373Z,22.30
2022-09-26T23:14:53.396Z,22.20
2022-09-26T23:19:56.102Z,22.20
2022-09-26T23:24:59.086Z,22.20
2022-09-26T23:30:03.130Z,22.20
2022-09-26T23:35:06.186Z,22.20
2022-09-26T23:40:09.784Z,22.20
2022-09-26T23:45:14.046Z,22.20
2022-09-26T23:50:16.802Z,22.10
2022-09-26T23:55:19.509Z,22.10
